Time;durP1;ratioP1;P1;durP2;ratioP2;P2;SDS_P1;SDS_P2;PMS_P1;PMS_P2;Temp;Humidity;BMP_temperature;BMP_pressure;BME280_temperature;BME280_humidity;BME280_pressure;Samples;Min_cycle;Max_cycle;Signal;HPM_P1;HPM_P2
2022/01/06 00:00:14;;;;;;;434.45;247.35;;;;;;;5.41;65.33;99889.75;685358;28;45230;-70
2022/01/06 00:00:38;;;;;;;432.45;237.05;;;;;;;5.41;65.06;99884.41;683462;28;114901;-69
2022/01/06 00:01:00;;;;;;;439.27;244.20;;;;;;;5.40;65.16;99888.06;685949;28;46403;-69
2022/01/06 00:01:21;;;;;;;444.00;249.82;;;;;;;5.43;64.92;99884.25;684299;28;45303;-71
2022/01/06 00:01:44;;;;;;;450.38;253.65;;;;;;;5.43;64.94;99888.78;685924;28;22182;-69
2022/01/06 00:02:05;;;;;;;453.35;247.18;;;;;;;5.43;65.06;99886.09;684845;28;69383;-71
2022/01/06 00:02:26;;;;;;;459.73;249.13;;;;;;;5.44;65.33;99888.59;686305;28;22431;-70
2022/01/06 00:02:47;;;;;;;461.80;237.60;;;;;;;5.44;65.02;99885.06;682862;28;21492;-70
2022/01/06 00:03:08;;;;;;;450.67;230.20;;;;;;;5.44;65.08;99872.53;683201;28;22527;-70
2022/01/06 00:03:31;;;;;;;438.83;231.85;;;;;;;5.45;65.10;99882.22;683604;28;21563;-70
2022/01/06 00:03:52;;;;;;;438.45;235.35;;;;;;;5.45;64.80;99889.44;682160;28;69141;-69
2022/01/06 00:04:13;;;;;;;436.30;230.52;;;;;;;5.45;65.00;99889.44;683137;28;22412;-69
2022/01/06 00:04:34;;;;;;;436.02;233.48;;;;;;;5.45;64.78;99882.22;685253;28;23449;-69
2022/01/06 00:04:55;;;;;;;436.15;231.57;;;;;;;5.41;65.06;99886.25;686400;28;22371;-71
2022/01/06 00:05:17;;;;;;;440.75;236.45;;;;;;;5.44;64.82;99890.41;685968;28;22394;-69
2022/01/06 00:05:38;;;;;;;442.35;245.18;;;;;;;5.42;64.83;99893.25;685293;28;45269;-69
2022/01/06 00:06:03;;;;;;;440.75;249.30;;;;;;;5.40;64.82;99889.91;686483;28;21326;-70
2022/01/06 00:06:27;;;;;;;438.85;251.02;;;;;;;5.43;64.92;99896.81;682757;28;113514;-71
2022/01/06 00:06:48;;;;;;;438.00;250.23;;;;;;;5.43;64.92;99888.78;683385;28;70224;-71
2022/01/06 00:07:09;;;;;;;438.55;252.00;;;;;;;5.43;65.02;99889.59;684694;28;45241;-71
2022/01/06 00:07:30;;;;;;;436.25;247.23;;;;;;;5.43;65.29;99886.91;686698;28;23455;-71
2022/01/06 00:07:53;;;;;;;439.55;256.00;;;;;;;5.45;65.17;99900.13;685860;28;21507;-71
2022/01/06 00:08:14;;;;;;;438.40;250.00;;;;;;;5.43;64.92;99896.81;684704;28;44227;-71
2022/01/06 00:08:36;;;;;;;431.00;235.17;;;;;;;5.47;65.13;99893.63;686508;28;21516;-71
2022/01/06 00:09:00;;;;;;;428.05;242.07;;;;;;;5.45;64.83;99890.25;684907;28;67516;-71
2022/01/06 00:09:21;;;;;;;431.05;247.65;;;;;;;5.45;65.01;99897.47;681619;28;93016;-71
2022/01/06 00:09:43;;;;;;;433.27;252.13;;;;;;;5.45;64.90;99895.63;683527;28;23463;-72
2022/01/06 00:10:06;;;;;;;431.38;252.57;;;;;;;5.44;64.79;99896.63;683596;28;23493;-72
2022/01/06 00:10:29;;;;;;;425.23;237.98;;;;;;;5.43;64.72;99891.44;681175;28;90361;-72
2022/01/06 00:10:51;;;;;;;428.02;238.73;;;;;;;5.41;64.78;99888.94;681755;28;66801;-72
2022/01/06 00:11:13;;;;;;;427.80;236.55;;;;;;;5.41;64.82;99892.44;683332;28;45243;-72
2022/01/06 00:11:34;;;;;;;426.30;237.70;;;;;;;5.44;64.97;99899.31;684821;28;46404;-72
2022/01/06 00:11:56;;;;;;;420.65;228.10;;;;;;;5.44;64.64;99901.13;685363;28;42448;-69
2022/01/06 00:12:30;;;;;;;420.58;224.57;;;;;;;5.41;64.85;99900.47;685306;28;46435;-70
2022/01/06 00:13:11;;;;;;;419.85;247.10;;;;;;;5.44;64.73;99901.13;685534;28;59081;-70
2022/01/06 00:13:52;;;;;;;414.40;232.50;;;;;;;5.43;64.75;99892.28;683825;28;135584;-72
2022/01/06 00:14:19;;;;;;;416.67;223.10;;;;;;;5.44;64.79;99902.00;681864;28;137372;-70
2022/01/06 00:14:55;;;;;;;421.67;244.80;;;;;;;5.43;64.72;99894.94;681271;28;137712;-71
2022/01/06 00:15:33;;;;;;;423.83;243.48;;;;;;;5.43;65.01;99910.19;681844;28;137934;-71
2022/01/06 00:16:09;;;;;;;424.23;252.57;;;;;;;5.43;64.83;99899.47;681706;28;159341;-69
2022/01/06 00:16:37;;;;;;;429.17;252.90;;;;;;;5.45;65.00;99905.50;680625;28;160723;-71
2022/01/06 00:17:16;;;;;;;425.85;248.88;;;;;;;5.46;65.00;99897.31;681283;28;157479;-71
2022/01/06 00:17:45;;;;;;;419.35;232.32;;;;;;;5.48;65.13;99903.31;682061;28;135911;-71
2022/01/06 00:18:20;;;;;;;423.48;238.30;;;;;;;5.47;64.77;99900.81;681401;28;138196;-71
2022/01/06 00:23:27;;;;;;;414.40;256.55;;;;;;;5.47;64.59;99911.53;681599;28;136664;-71
2022/01/06 00:23:49;;;;;;;424.05;246.68;;;;;;;5.46;64.88;99912.53;678892;28;137710;-72
2022/01/06 00:24:10;;;;;;;417.13;243.80;;;;;;;5.45;64.87;99914.34;683361;28;22385;-71
2022/01/06 00:24:32;;;;;;;413.77;241.40;;;;;;;5.45;64.75;99908.19;683214;28;23411;-72
2022/01/06 00:24:53;;;;;;;413.25;238.18;;;;;;;5.45;64.82;99911.69;682999;28;46298;-72
2022/01/06 00:25:14;;;;;;;418.42;249.68;;;;;;;5.46;64.83;99916.03;683106;28;23300;-72
2022/01/06 00:25:35;;;;;;;418.42;256.58;;;;;;;5.44;64.73;99909.16;682790;28;46368;-72
2022/01/06 00:25:58;;;;;;;415.15;253.98;;;;;;;5.46;64.84;99912.53;686456;28;23222;-72
2022/01/06 00:26:19;;;;;;;416.30;249.07;;;;;;;5.45;64.91;99910.84;684689;28;69435;-72
2022/01/06 00:26:41;;;;;;;420.23;255.40;;;;;;;5.45;64.85;99916.22;684780;28;21537;-70
2022/01/06 00:27:03;;;;;;;418.67;248.23;;;;;;;5.43;64.54;99915.53;684426;28;22343;-69
2022/01/06 00:27:24;;;;;;;416.33;245.20;;;;;;;5.46;64.78;99909.88;680517;28;30103;-73
2022/01/06 00:27:45;;;;;;;422.52;249.57;;;;;;;5.45;64.61;99917.03;680763;29;22434;-69
2022/01/06 00:28:06;;;;;;;420.95;241.38;;;;;;;5.44;64.85;99910.03;680978;28;23236;-72
2022/01/06 00:28:27;;;;;;;418.77;235.15;;;;;;;5.45;64.55;99911.69;680449;28;22214;-68
2022/01/06 00:28:49;;;;;;;411.92;219.80;;;;;;;5.45;64.83;99918.88;681447;28;22202;-69
2022/01/06 00:29:10;;;;;;;412.95;213.65;;;;;;;5.46;64.78;99920.56;681762;28;44008;-71
2022/01/06 00:29:31;;;;;;;420.13;233.93;;;;;;;5.45;64.74;99918.88;685844;28;23459;-69
2022/01/06 00:29:52;;;;;;;420.50;240.77;;;;;;;5.46;64.53;99921.41;685895;28;22185;-69
2022/01/06 00:30:15;;;;;;;418.83;232.45;;;;;;;5.46;64.58;99923.25;684973;28;23473;-69
2022/01/06 00:30:36;;;;;;;422.27;230.02;;;;;;;5.45;64.44;99919.72;685179;28;46273;-69
2022/01/06 00:30:57;;;;;;;420.02;228.55;;;;;;;5.46;64.53;99918.72;686618;28;20872;-69
2022/01/06 00:31:21;;;;;;;418.27;227.55;;;;;;;5.47;64.53;99924.91;685156;28;44394;-69
2022/01/06 00:31:42;;;;;;;418.80;234.60;;;;;;;5.47;64.65;99922.22;682504;28;90717;-70
2022/01/06 00:32:04;;;;;;;421.92;234.00;;;;;;;5.47;64.87;99920.41;686466;28;21520;-69
2022/01/06 00:32:25;;;;;;;421.60;237.05;;;;;;;5.47;64.65;99922.22;685815;28;22377;-70
2022/01/06 00:32:46;;;;;;;419.75;237.02;;;;;;;5.47;64.50;99923.09;686031;28;22406;-70
2022/01/06 00:33:07;;;;;;;418.80;236.63;;;;;;;5.46;64.75;99926.75;685535;28;22257;-70
2022/01/06 00:33:31;;;;;;;421.23;241.88;;;;;;;5.44;64.46;99918.06;685065;28;22549;-70
2022/01/06 00:33:52;;;;;;;421.35;245.90;;;;;;;5.44;64.55;99920.75;683713;28;92206;-70
2022/01/06 00:34:13;;;;;;;424.80;243.82;;;;;;;5.44;64.68;99923.41;685733;28;21496;-71
2022/01/06 00:34:34;;;;;;;426.23;250.60;;;;;;;5.45;64.55;99924.25;686116;28;22075;-70
2022/01/06 00:34:56;;;;;;;423.80;252.02;;;;;;;5.47;64.74;99916.88;684703;28;46163;-70
2022/01/06 00:35:17;;;;;;;423.10;255.27;;;;;;;5.49;64.82;99918.41;684450;28;44408;-70
2022/01/06 00:35:38;;;;;;;421.85;244.75;;;;;;;5.49;64.95;99926.44;686008;28;22377;-69
2022/01/06 00:35:59;;;;;;;421.60;246.02;;;;;;;5.48;64.62;99921.25;686194;28;22440;-70
2022/01/06 00:36:21;;;;;;;419.20;240.52;;;;;;;5.47;64.81;99920.41;686295;28;23397;-70
2022/01/06 00:36:43;;;;;;;423.95;246.50;;;;;;;5.48;64.55;99930.09;684380;28;44161;-70
2022/01/06 00:37:07;;;;;;;424.88;254.32;;;;;;;5.48;64.85;99919.38;686327;28;22388;-70
2022/01/06 00:37:28;;;;;;;420.23;246.93;;;;;;;5.49;64.79;99928.28;684641;28;92120;-70
2022/01/06 00:37:50;;;;;;;421.55;245.02;;;;;;;5.49;64.86;99929.13;685662;28;22432;-70
2022/01/06 00:38:11;;;;;;;421.35;249.95;;;;;;;5.47;64.74;99923.09;684839;28;46130;-69
2022/01/06 00:38:32;;;;;;;416.65;242.73;;;;;;;5.46;64.20;99925.94;685714;28;22468;-71
2022/01/06 00:38:53;;;;;;;415.83;231.10;;;;;;;5.47;64.34;99930.25;685050;28;46279;-71
2022/01/06 00:39:15;;;;;;;419.85;231.05;;;;;;;5.44;64.50;99923.41;685591;28;22335;-71
2022/01/06 00:39:36;;;;;;;422.48;250.50;;;;;;;5.44;64.28;99926.09;685336;28;46406;-71
2022/01/06 00:39:57;;;;;;;421.25;255.27;;;;;;;5.46;64.46;99928.63;685529;28;22185;-71
2022/01/06 00:40:18;;;;;;;418.23;251.00;;;;;;;5.47;64.40;99927.59;686116;28;23505;-71
2022/01/06 00:40:39;;;;;;;422.67;255.75;;;;;;;5.46;64.69;99926.75;686479;28;22177;-71
2022/01/06 00:41:01;;;;;;;421.10;249.00;;;;;;;5.46;64.46;99934.78;685817;28;22244;-70
2022/01/06 00:41:23;;;;;;;417.92;247.35;;;;;;;5.47;64.33;99925.78;685087;28;44151;-70
2022/01/06 00:41:44;;;;;;;417.80;257.58;;;;;;;5.47;64.49;99925.78;684501;28;22236;-71
2022/01/06 00:42:06;;;;;;;416.13;243.82;;;;;;;5.48;64.40;99926.59;686245;28;21543;-71
2022/01/06 00:42:27;;;;;;;420.05;249.45;;;;;;;5.48;64.46;99926.59;686311;28;29365;-71
2022/01/06 00:42:48;;;;;;;413.55;233.35;;;;;;;5.49;64.47;99925.59;685816;28;22474;-71
2022/01/06 00:43:11;;;;;;;415.08;242.60;;;;;;;5.49;64.43;99930.97;685638;28;22405;-71
2022/01/06 00:43:33;;;;;;;415.67;233.65;;;;;;;5.48;64.41;99929.28;684968;28;45365;-71
2022/01/06 00:43:54;;;;;;;417.42;230.95;;;;;;;5.48;64.45;99930.09;684935;28;46720;-71
2022/01/06 00:44:17;;;;;;;415.70;231.35;;;;;;;5.49;64.47;99931.78;686124;28;22537;-70
2022/01/06 00:44:39;;;;;;;418.05;247.60;;;;;;;5.48;64.61;99932.78;684331;28;69627;-71
2022/01/06 00:45:01;;;;;;;417.05;250.75;;;;;;;5.49;64.51;99931.78;684448;28;45169;-71
2022/01/06 00:45:23;;;;;;;420.15;247.00;;;;;;;5.49;64.71;99936.31;686462;28;1016;-70
2022/01/06 00:45:44;;;;;;;419.08;246.90;;;;;;;5.49;64.57;99930.97;686088;28;22405;-71
2022/01/06 00:46:06;;;;;;;414.45;235.15;;;;;;;5.50;64.52;99937.97;685960;28;23496;-71
2022/01/06 00:46:27;;;;;;;414.30;229.88;;;;;;;5.50;64.37;99938.84;685908;28;31817;-70
2022/01/06 00:46:48;;;;;;;417.90;223.20;;;;;;;5.50;64.67;99933.47;684590;28;22514;-71
2022/01/06 00:47:10;;;;;;;420.70;236.07;;;;;;;5.50;64.15;99930.81;685276;28;47069;-71
2022/01/06 00:47:31;;;;;;;416.33;223.57;;;;;;;5.51;64.39;99942.34;686218;28;22483;-71
2022/01/06 00:47:52;;;;;;;420.73;232.07;;;;;;;5.51;64.51;99939.66;687130;28;1095;-72
2022/01/06 00:48:14;;;;;;;421.48;234.82;;;;;;;5.51;64.20;99931.63;686277;28;22464;-72
2022/01/06 00:48:36;;;;;;;419.75;230.63;;;;;;;5.49;64.16;99941.69;686501;28;1836;-72
2022/01/06 00:48:57;;;;;;;419.92;217.88;;;;;;;5.50;64.19;99943.34;685178;28;47219;-71
2022/01/06 00:49:20;;;;;;;422.40;227.15;;;;;;;5.49;64.14;99930.97;686141;28;22401;-72
2022/01/06 00:49:41;;;;;;;421.45;239.40;;;;;;;5.48;64.49;99940.00;685480;28;45213;-70
2022/01/06 00:50:18;;;;;;;420.85;244.50;;;;;;;5.46;64.38;99934.78;685521;28;22397;-71
2022/01/06 00:50:46;;;;;;;420.48;245.80;;;;;;;5.43;64.37;99929.75;681227;28;137143;-71
2022/01/06 00:51:13;;;;;;;414.00;240.70;;;;;;;5.44;64.50;99935.94;684118;28;60347;-71
2022/01/06 00:51:47;;;;;;;420.60;239.90;;;;;;;5.48;64.57;99943.50;671685;28;58834;-71
2022/01/06 00:52:10;;;;;;;422.95;254.65;;;;;;;5.49;64.45;99944.34;684293;28;138448;-71
2022/01/06 00:52:31;;;;;;;422.10;246.68;;;;;;;5.49;64.67;99945.19;687538;28;45250;-71
2022/01/06 00:52:52;;;;;;;425.02;249.02;;;;;;;5.50;64.33;99948.69;688504;28;23379;-71
2022/01/06 00:53:14;;;;;;;425.85;255.90;;;;;;;5.50;64.36;99946.88;685769;28;22370;-69
2022/01/06 00:53:35;;;;;;;426.80;253.98;;;;;;;5.50;64.45;99949.53;686764;28;69424;-71
2022/01/06 00:53:56;;;;;;;426.60;253.48;;;;;;;5.51;64.40;99955.72;686671;28;21525;-71
2022/01/06 00:54:18;;;;;;;423.58;248.35;;;;;;;5.51;64.37;99947.69;685394;28;23485;-71
2022/01/06 00:54:40;;;;;;;423.83;248.45;;;;;;;5.51;64.70;99945.84;685260;28;46295;-71
2022/01/06 00:55:01;;;;;;;429.65;257.92;;;;;;;5.52;64.71;99955.56;685660;28;22408;-70
2022/01/06 00:55:22;;;;;;;428.85;253.55;;;;;;;5.50;64.58;99952.22;685514;28;23472;-71
2022/01/06 00:55:44;;;;;;;425.90;247.63;;;;;;;5.52;64.42;99952.88;685867;28;22403;-72
2022/01/06 00:56:05;;;;;;;420.52;243.15;;;;;;;5.53;64.66;99949.22;684971;28;46577;-71
2022/01/06 00:56:26;;;;;;;422.55;247.43;;;;;;;5.53;64.35;99959.06;686086;28;21082;-70
2022/01/06 00:56:47;;;;;;;421.73;238.20;;;;;;;5.53;64.48;99961.75;685045;28;22352;-70
2022/01/06 00:57:09;;;;;;;428.90;239.53;;;;;;;5.55;64.37;99967.81;685089;28;46374;-71
2022/01/06 00:57:30;;;;;;;441.63;252.45;;;;;;;5.56;64.77;99962.28;684499;28;69481;-71
2022/01/06 00:57:55;;;;;;;436.20;252.13;;;;;;;5.58;64.88;99954.09;686430;28;24201;-70
2022/01/06 00:58:16;;;;;;;442.15;243.85;;;;;;;5.58;64.76;99962.94;682390;28;115128;-72
2022/01/06 00:59:22;;;;;;;445.73;237.63;;;;;;;5.54;65.02;99960.75;673192;29;137394;-69
2022/01/06 00:59:43;;;;;;;443.25;235.13;;;;;;;5.51;65.18;99966.44;684155;28;46047;-70
2022/01/06 01:00:05;;;;;;;449.98;248.85;;;;;;;5.50;65.00;99965.63;685568;28;22175;-72
2022/01/06 01:00:29;;;;;;;453.08;255.23;;;;;;;5.48;65.08;99970.28;684569;28;46777;-71
2022/01/06 01:00:51;;;;;;;452.02;254.40;;;;;;;5.49;65.44;99971.97;683398;28;92264;-72
2022/01/06 01:01:12;;;;;;;444.95;233.85;;;;;;;5.48;65.43;99970.28;684952;28;45247;-70
2022/01/06 01:01:33;;;;;;;443.38;229.82;;;;;;;5.49;65.36;99976.50;686162;28;45273;-69
2022/01/06 01:02:14;;;;;;;445.65;228.75;;;;;;;5.47;65.61;99978.47;684894;28;20691;-71
2022/01/06 01:02:57;;;;;;;446.08;227.93;;;;;;;5.41;65.65;99972.78;674716;29;137194;-70
2022/01/06 01:03:23;;;;;;;453.27;245.85;;;;;;;5.46;66.00;99984.84;672311;29;59948;-69
2022/01/06 01:03:44;;;;;;;451.52;247.45;;;;;;;5.44;65.79;99982.34;676967;29;67251;-70
2022/01/06 01:04:05;;;;;;;452.08;241.60;;;;;;;5.44;65.98;99993.06;680553;28;22404;-71
2022/01/06 01:04:26;;;;;;;449.10;234.23;;;;;;;5.43;65.91;99979.81;681446;28;22411;-70
2022/01/06 01:04:47;;;;;;;449.05;240.98;;;;;;;5.42;66.11;99984.31;682969;28;21366;-71
2022/01/06 01:05:09;;;;;;;446.30;240.13;;;;;;;5.40;66.20;99981.81;682657;28;46531;-71
2022/01/06 01:05:30;;;;;;;451.30;247.98;;;;;;;5.39;66.25;99980.16;685410;28;46324;-70
2022/01/06 01:05:53;;;;;;;451.60;248.27;;;;;;;5.39;66.39;99984.63;686132;28;23469;-71
2022/01/06 01:06:15;;;;;;;448.38;242.98;;;;;;;5.40;66.39;99989.00;685147;28;46302;-69
2022/01/06 01:06:36;;;;;;;442.38;235.60;;;;;;;5.39;66.26;99985.50;684575;28;45281;-70
2022/01/06 01:06:57;;;;;;;445.63;244.00;;;;;;;5.38;66.47;99980.31;686391;28;23829;-72
2022/01/06 01:07:19;;;;;;;446.23;239.93;;;;;;;5.39;66.06;99987.31;685803;28;22536;-72
2022/01/06 01:07:40;;;;;;;446.48;236.80;;;;;;;5.38;66.18;99997.19;684441;28;68153;-70
2022/01/06 01:08:02;;;;;;;442.20;222.38;;;;;;;5.38;66.41;99985.66;685774;28;23479;-72
2022/01/06 01:08:24;;;;;;;443.60;223.23;;;;;;;5.36;65.94;99984.97;684994;28;46669;-72
2022/01/06 01:08:48;;;;;;;448.35;236.07;;;;;;;5.39;66.26;99992.69;682654;28;114925;-72
2022/01/06 01:09:10;;;;;;;450.85;250.13;;;;;;;5.39;66.28;100000.72;683149;28;46475;-72
2022/01/06 01:09:31;;;;;;;446.80;237.10;;;;;;;5.38;66.25;99989.16;685065;28;45339;-72
2022/01/06 01:09:52;;;;;;;448.30;240.70;;;;;;;5.37;66.21;99992.84;685910;28;22454;-72
2022/01/06 01:10:14;;;;;;;449.63;248.65;;;;;;;5.34;66.21;99995.84;684941;28;23738;-72
2022/01/06 01:10:37;;;;;;;449.45;252.70;;;;;;;5.36;66.00;100003.72;685935;28;22361;-72
2022/01/06 01:10:58;;;;;;;451.92;251.52;;;;;;;5.35;65.89;99985.97;683484;28;83205;-72
2022/01/06 01:11:20;;;;;;;453.00;249.55;;;;;;;5.38;65.98;99997.19;685520;28;23489;-72
2022/01/06 01:11:42;;;;;;;452.45;254.73;;;;;;;5.39;66.10;100004.25;687064;28;23516;-70
2022/01/06 01:12:04;;;;;;;453.45;255.90;;;;;;;5.39;66.14;100006.94;687226;28;46309;-72
2022/01/06 01:12:27;;;;;;;451.38;251.95;;;;;;;5.39;65.93;99996.22;689210;28;1624;-69
2022/01/06 01:12:49;;;;;;;452.88;249.50;;;;;;;5.39;65.98;100006.94;687229;28;46138;-72
2022/01/06 01:13:12;;;;;;;457.92;256.65;;;;;;;5.38;66.05;100007.09;686772;28;46645;-71
2022/01/06 01:13:43;;;;;;;460.27;268.50;;;;;;;5.37;65.83;100000.88;687422;28;13635;-71
2022/01/06 01:14:17;;;;;;;456.13;254.15;;;;;;;5.38;65.78;100009.75;682286;28;135484;-70
2022/01/06 01:14:52;;;;;;;456.63;246.30;;;;;;;5.36;66.06;100003.72;682112;28;137390;-69
2022/01/06 01:15:19;;;;;;;451.92;230.45;;;;;;;5.37;66.08;100005.41;680171;28;158942;-72
2022/01/06 01:15:46;;;;;;;453.05;231.27;;;;;;;5.36;65.78;100015.28;681275;28;161006;-71
2022/01/06 01:16:20;;;;;;;453.58;231.93;;;;;;;5.32;66.06;100016.59;681960;28;138527;-71
2022/01/06 01:16:41;;;;;;;457.48;239.07;;;;;;;5.35;65.81;100015.44;681448;28;137692;-72
2022/01/06 01:17:03;;;;;;;458.48;241.75;;;;;;;5.34;65.69;100019.94;686237;28;22226;-69
2022/01/06 01:17:26;;;;;;;456.42;240.10;;;;;;;5.34;65.77;100022.63;684242;28;44350;-70
2022/01/06 01:17:49;;;;;;;457.38;238.50;;;;;;;5.34;65.94;100027.97;684356;28;69287;-69
2022/01/06 01:18:13;;;;;;;456.70;232.10;;;;;;;5.33;65.92;100030.81;683976;28;69237;-70
2022/01/06 01:18:34;;;;;;;457.75;242.55;;;;;;;5.31;66.05;100039.00;683662;28;92231;-72
2022/01/06 01:18:57;;;;;;;456.63;246.20;;;;;;;5.31;66.03;100036.31;684906;28;46695;-69
2022/01/06 01:19:18;;;;;;;456.35;235.23;;;;;;;5.31;66.09;100027.47;683791;28;69118;-71
2022/01/06 01:19:40;;;;;;;454.48;236.05;;;;;;;5.29;65.89;100024.94;686170;28;22133;-70
2022/01/06 01:20:02;;;;;;;456.65;241.38;;;;;;;5.29;65.83;100021.44;685549;28;45267;-71
2022/01/06 01:20:23;;;;;;;457.08;237.20;;;;;;;5.30;66.02;100028.44;684339;28;47674;-72
2022/01/06 01:20:45;;;;;;;454.83;233.05;;;;;;;5.30;65.96;100033.81;685669;28;22356;-71
2022/01/06 01:21:07;;;;;;;451.27;233.65;;;;;;;5.29;65.95;100032.97;685672;28;22401;-70
2022/01/06 01:21:28;;;;;;;448.67;228.93;;;;;;;5.29;65.78;100027.63;685251;28;45022;-71
2022/01/06 01:21:49;;;;;;;448.57;234.60;;;;;;;5.31;65.96;100025.59;683789;28;23483;-70
2022/01/06 01:22:10;;;;;;;451.60;243.20;;;;;;;5.31;65.92;100030.97;686692;28;1111;-71
2022/01/06 01:22:33;;;;;;;442.70;245.30;;;;;;;5.30;65.75;100028.44;686084;28;22394;-71
2022/01/06 01:22:55;;;;;;;430.33;247.37;;;;;;;5.27;65.69;100032.31;686811;28;1582;-71
2022/01/06 01:23:21;;;;;;;431.17;242.55;;;;;;;5.26;65.83;100035.97;684994;28;47318;-71
2022/01/06 01:23:45;;;;;;;442.25;245.93;;;;;;;5.25;65.60;100037.00;682967;28;107664;-72
2022/01/06 01:24:15;;;;;;;445.42;237.15;;;;;;;5.23;65.78;100033.59;684858;28;86326;-71
2022/01/06 01:24:47;;;;;;;443.08;244.57;;;;;;;5.23;65.51;100037.16;685009;28;83020;-71
2022/01/06 01:25:15;;;;;;;444.08;229.43;;;;;;;5.22;65.78;100040.81;679384;28;137157;-70
2022/01/06 01:25:39;;;;;;;450.40;226.27;;;;;;;5.22;65.76;100043.50;681765;28;60367;-72
2022/01/06 01:26:00;;;;;;;453.42;239.25;;;;;;;5.23;65.93;100033.59;683800;28;1523;-72
2022/01/06 01:26:23;;;;;;;451.75;239.13;;;;;;;5.23;65.77;100038.97;682750;28;22475;-72
2022/01/06 01:26:44;;;;;;;455.20;236.52;;;;;;;5.26;65.92;100027.94;680801;28;60010;-72
2022/01/06 01:27:11;;;;;;;464.05;247.70;;;;;;;5.27;65.46;100045.69;684307;28;59243;-71
2022/01/06 01:27:37;;;;;;;460.50;244.32;;;;;;;5.26;65.45;100046.69;686679;28;1697;-73
2022/01/06 01:27:59;;;;;;;457.80;245.73;;;;;;;5.27;65.10;100034.16;681515;28;138654;-70
2022/01/06 01:28:20;;;;;;;462.00;253.77;;;;;;;5.26;65.08;100045.84;683742;28;46417;-70
2022/01/06 01:28:44;;;;;;;461.15;251.25;;;;;;;5.24;64.43;100040.66;686208;28;23470;-72
2022/01/06 01:29:09;;;;;;;453.58;228.68;;;;;;;5.22;64.43;100048.84;683292;28;93029;-71
2022/01/06 01:29:34;;;;;;;455.65;228.40;;;;;;;5.21;64.49;100043.66;683064;28;113397;-72
2022/01/06 01:29:58;;;;;;;457.45;231.45;;;;;;;5.21;64.63;100054.34;682265;28;138797;-72
2022/01/06 01:30:20;;;;;;;457.63;233.40;;;;;;;5.21;64.49;100040.97;683056;28;92847;-72
2022/01/06 01:30:54;;;;;;;457.10;235.95;;;;;;;5.22;64.76;100048.00;686215;28;22385;-72
2022/01/06 01:31:32;;;;;;;460.50;238.27;;;;;;;5.22;64.01;100050.69;681229;28;137826;-72
2022/01/06 01:31:55;;;;;;;458.08;232.98;;;;;;;5.22;63.61;100045.34;680011;28;158548;-72
2022/01/06 01:32:16;;;;;;;461.45;240.93;;;;;;;5.20;63.44;100050.84;683128;28;92970;-72
2022/01/06 01:32:39;;;;;;;463.40;246.02;;;;;;;5.18;63.30;100042.13;686386;28;22387;-72
2022/01/06 01:33:01;;;;;;;459.67;232.18;;;;;;;5.18;62.87;100044.78;684463;28;67228;-71
2022/01/06 01:33:23;;;;;;;458.58;230.88;;;;;;;5.17;62.93;100053.84;684879;28;45255;-71
2022/01/06 01:33:44;;;;;;;464.00;246.43;;;;;;;5.12;62.83;100039.25;685979;28;21539;-71
2022/01/06 01:34:09;;;;;;;466.42;247.45;;;;;;;5.16;62.42;100051.31;685403;28;46318;-72
2022/01/06 01:34:31;;;;;;;464.50;236.10;;;;;;;5.14;62.63;100047.94;682968;28;115241;-72
2022/01/06 01:34:59;;;;;;;464.88;240.88;;;;;;;5.13;62.58;100057.00;686293;28;22388;-72
2022/01/06 01:35:22;;;;;;;465.67;243.75;;;;;;;5.12;62.58;100053.47;681586;28;136210;-72
2022/01/06 01:35:44;;;;;;;465.33;244.63;;;;;;;5.11;62.44;100067.88;684439;28;67467;-72
2022/01/06 01:36:15;;;;;;;462.75;232.43;;;;;;;5.12;62.44;100061.50;685151;28;46804;-71
2022/01/06 01:36:40;;;;;;;466.55;240.60;;;;;;;5.09;62.26;100058.31;684035;28;60082;-71
2022/01/06 01:37:19;;;;;;;469.67;252.63;;;;;;;5.15;62.34;100057.66;682650;28;115209;-71
2022/01/06 01:37:42;;;;;;;465.35;241.07;;;;;;;5.09;61.60;100059.13;682283;28;137701;-70
2022/01/06 01:38:03;;;;;;;464.70;236.95;;;;;;;5.08;61.49;100070.00;684243;28;68365;-71
2022/01/06 01:38:24;;;;;;;464.65;236.70;;;;;;;5.04;61.65;100075.66;685875;28;22421;-71
2022/01/06 01:38:46;;;;;;;463.55;230.23;;;;;;;5.03;61.28;100063.28;685996;28;22465;-72
2022/01/06 01:39:07;;;;;;;464.70;238.45;;;;;;;5.04;61.42;100069.47;684918;28;46325;-72
2022/01/06 01:39:28;;;;;;;465.88;241.93;;;;;;;5.03;60.99;100073.13;686483;28;22368;-72
2022/01/06 01:39:49;;;;;;;468.48;252.00;;;;;;;5.01;61.20;100067.94;685823;28;21329;-72
2022/01/06 01:40:11;;;;;;;466.48;244.32;;;;;;;5.00;61.05;100068.97;686350;28;1534;-71
2022/01/06 01:40:34;;;;;;;463.65;230.98;;;;;;;4.98;61.13;100060.22;685456;28;44395;-72
2022/01/06 01:40:55;;;;;;;466.13;241.13;;;;;;;4.99;61.34;100075.31;685256;28;44355;-71
2022/01/06 01:41:16;;;;;;;467.08;245.88;;;;;;;5.00;61.40;100078.81;686510;28;1033;-72
2022/01/06 01:41:38;;;;;;;464.45;230.55;;;;;;;4.99;61.11;100074.47;685501;28;20897;-72
2022/01/06 01:42:00;;;;;;;460.73;227.45;;;;;;;4.97;60.98;100063.06;685524;28;23533;-70
2022/01/06 01:42:21;;;;;;;454.35;226.63;;;;;;;4.97;60.92;100073.78;684853;28;46333;-71
2022/01/06 01:42:42;;;;;;;458.88;226.80;;;;;;;4.95;60.39;100076.59;685465;28;46312;-72
2022/01/06 01:43:03;;;;;;;463.38;230.07;;;;;;;4.92;60.54;100070.72;686178;28;22357;-72
2022/01/06 01:43:26;;;;;;;464.10;230.73;;;;;;;4.94;61.04;100068.75;685254;28;21502;-72
2022/01/06 01:43:47;;;;;;;461.55;226.32;;;;;;;4.93;60.83;100083.13;684848;28;45223;-72
2022/01/06 01:44:13;;;;;;;462.63;228.73;;;;;;;4.93;60.78;100073.25;686040;28;21360;-71
2022/01/06 01:44:35;;;;;;;465.95;238.70;;;;;;;4.93;60.92;100070.56;681467;28;138022;-72
2022/01/06 01:44:56;;;;;;;465.23;234.85;;;;;;;4.94;60.74;100084.81;686178;28;1560;-72
2022/01/06 01:45:17;;;;;;;464.42;228.30;;;;;;;4.93;60.59;100081.28;685147;28;21550;-72
2022/01/06 01:45:45;;;;;;;462.85;227.63;;;;;;;4.90;60.32;100078.91;685537;28;22398;-72
2022/01/06 01:46:10;;;;;;;463.63;231.77;;;;;;;4.91;60.27;100079.78;682915;28;136222;-71
2022/01/06 01:46:42;;;;;;;462.42;224.68;;;;;;;4.89;60.15;100082.59;682915;28;114902;-69
2022/01/06 01:47:13;;;;;;;462.00;221.57;;;;;;;4.90;60.03;100065.53;680526;28;156461;-71
2022/01/06 01:47:40;;;;;;;462.10;221.43;;;;;;;4.92;60.16;100084.97;681206;28;159006;-69
2022/01/06 01:48:06;;;;;;;463.33;226.40;;;;;;;4.89;59.68;100082.59;682063;28;137899;-69
2022/01/06 01:48:32;;;;;;;462.35;222.95;;;;;;;4.89;59.94;100074.56;681831;28;137896;-71
2022/01/06 01:49:12;;;;;;;463.55;228.57;;;;;;;4.86;59.49;100081.06;682133;28;136467;-69
2022/01/06 01:49:47;;;;;;;462.65;226.88;;;;;;;4.87;59.35;100085.44;682017;28;136066;-70
2022/01/06 01:50:13;;;;;;;462.88;223.18;;;;;;;4.85;59.23;100075.88;681868;28;137477;-70
2022/01/06 01:50:34;;;;;;;462.35;223.77;;;;;;;4.84;59.30;100087.56;683002;28;113581;-69
2022/01/06 01:50:55;;;;;;;465.58;237.02;;;;;;;4.82;59.14;100079.69;686657;28;22433;-70
2022/01/06 01:51:17;;;;;;;467.80;247.95;;;;;;;4.82;59.17;100087.72;686363;28;7288;-70
2022/01/06 01:51:39;;;;;;;470.45;258.80;;;;;;;4.81;58.95;100088.75;685847;28;4859;-72
2022/01/06 01:52:00;;;;;;;468.98;250.55;;;;;;;4.82;59.41;100094.91;682942;28;23458;-72
2022/01/06 01:52:21;;;;;;;466.95;242.55;;;;;;;4.82;59.40;100092.25;682514;28;22367;-71
2022/01/06 01:52:46;;;;;;;465.67;235.53;;;;;;;4.80;58.88;100089.72;685899;28;21943;-71
2022/01/06 01:53:07;;;;;;;466.02;236.35;;;;;;;4.80;58.92;100099.59;682085;28;124687;-71